Time;durP1;ratioP1;P1;durP2;ratioP2;P2;SDS_P1;SDS_P2;PMS_P1;PMS_P2;Temp;Humidity;BMP_temperature;BMP_pressure;BME280_temperature;BME280_humidity;BME280_pressure;Samples;Min_cycle;Max_cycle;Signal;HPM_P1;HPM_P2
2022/09/22 00:01:12;;;;;;;0.50;0.50;;;;;;;9.11;99.63;99125.38;4901220;29;20078;-82
2022/09/22 00:03:44;;;;;;;0.50;0.50;;;;;;;9.13;99.76;99127.00;4907500;29;20052;-82
2022/09/22 00:06:14;;;;;;;0.50;0.50;;;;;;;9.15;99.68;99130.28;4904989;29;20099;-82
2022/09/22 00:08:44;;;;;;;0.50;0.50;;;;;;;9.17;99.68;99133.56;4904401;29;20052;-82
2022/09/22 00:11:23;;;;;;;0.50;0.50;;;;;;;9.17;99.63;99133.56;4889793;29;20537;-83
2022/09/22 00:13:58;;;;;;;0.50;0.50;;;;;;;9.20;99.35;99136.59;4906784;29;20068;-83
2022/09/22 00:16:35;;;;;;;;;;;;;;;9.18;99.38;99135.19;4905218;29;20064;-81
2022/09/22 00:19:10;;;;;;;0.50;0.50;;;;;;;9.14;99.14;99140.25;4907421;29;20330;-83
2022/09/22 00:21:37;;;;;;;0.50;0.50;;;;;;;9.14;99.20;99134.00;4909023;29;20542;-83
2022/09/22 00:24:08;;;;;;;0.60;0.60;;;;;;;9.18;99.24;99135.19;4904032;29;20385;-82
2022/09/22 00:26:36;;;;;;;0.50;0.50;;;;;;;9.19;99.23;99134.13;4904737;29;20147;-82
2022/09/22 00:29:08;;;;;;;0.50;0.50;;;;;;;9.18;99.23;99145.97;4903487;29;20056;-83
2022/09/22 00:31:37;;;;;;;0.50;0.50;;;;;;;9.15;99.33;99141.06;4904702;29;20052;-83
2022/09/22 00:34:14;;;;;;;0.50;0.50;;;;;;;9.18;99.39;99140.59;4904859;29;20052;-83
2022/09/22 00:36:41;;;;;;;0.50;0.50;;;;;;;9.15;99.60;99139.19;4902590;29;20111;-82
2022/09/22 00:39:08;;;;;;;0.60;0.60;;;;;;;9.16;99.64;99131.91;4902918;29;20144;-82
2022/09/22 00:41:39;;;;;;;0.50;0.50;;;;;;;9.11;99.33;99146.91;4914794;29;20060;-82
2022/09/22 00:44:15;;;;;;;0.60;0.60;;;;;;;9.12;99.16;99131.56;4912743;29;20182;-80
2022/09/22 00:46:44;;;;;;;0.60;0.60;;;;;;;9.08;99.08;99125.81;4914889;29;20058;-81
2022/09/22 00:49:13;;;;;;;0.50;0.50;;;;;;;9.08;99.01;99131.19;4913427;29;20052;-81
2022/09/22 00:51:41;;;;;;;0.50;0.50;;;;;;;9.08;98.75;99135.75;4912276;29;20092;-79
2022/09/22 00:54:11;;;;;;;0.50;0.50;;;;;;;9.06;98.62;99132.47;4913128;29;20091;-80
2022/09/22 00:56:45;;;;;;;0.50;0.50;;;;;;;9.09;98.75;99137.41;4913562;29;20067;-81
2022/09/22 00:59:18;;;;;;;0.60;0.60;;;;;;;9.09;98.52;99135.53;4911196;29;20142;-81
2022/09/22 01:01:45;;;;;;;0.60;0.60;;;;;;;9.09;98.46;99137.41;4913096;29;20079;-80
2022/09/22 01:04:13;;;;;;;0.60;0.60;;;;;;;9.14;98.34;99134.00;4905872;29;20056;-82
2022/09/22 01:06:40;;;;;;;0.50;0.50;;;;;;;9.13;98.33;99141.28;4900741;29;20484;-81
2022/09/22 01:09:08;;;;;;;0.50;0.50;;;;;;;9.10;97.92;99134.47;4900776;29;20416;-80
2022/09/22 01:11:36;;;;;;;0.50;0.50;;;;;;;9.13;98.19;99137.78;4902510;29;20056;-81
2022/09/22 01:14:17;;;;;;;0.50;0.50;;;;;;;9.12;97.99;99147.72;4901901;29;20196;-81
2022/09/22 01:17:37;;;;;;;0.50;0.50;;;;;;;9.14;97.96;99142.09;4903812;29;20088;-82
2022/09/22 01:20:42;;;;;;;0.60;0.60;;;;;;;9.14;98.02;99139.41;4868851;29;20052;-81
2022/09/22 01:23:33;;;;;;;0.50;0.50;;;;;;;9.13;97.87;99143.16;4859596;29;20057;-82
2022/09/22 01:26:25;;;;;;;0.50;0.50;;;;;;;9.15;97.63;99139.19;4875423;29;20080;-81
2022/09/22 01:29:22;;;;;;;0.50;0.50;;;;;;;9.12;97.53;99131.56;4875424;29;20439;-81
2022/09/22 01:31:54;;;;;;;0.50;0.50;;;;;;;9.09;97.44;99130.16;4859871;29;20063;-81
2022/09/22 01:34:30;;;;;;;0.60;0.60;;;;;;;9.11;97.52;99130.75;4859922;29;20120;-81
2022/09/22 01:37:08;;;;;;;0.60;0.60;;;;;;;9.13;97.46;99133.19;4859456;29;20172;-81
2022/09/22 01:39:39;;;;;;;0.50;0.50;;;;;;;9.14;97.37;99134.84;4874613;29;20049;-82
2022/09/22 01:42:10;;;;;;;0.50;0.50;;;;;;;9.13;97.11;99132.38;4875286;29;20049;-81
2022/09/22 01:45:06;;;;;;;0.50;0.50;;;;;;;9.13;97.11;99132.38;4874811;29;20144;-82
2022/09/22 01:47:42;;;;;;;0.60;0.60;;;;;;;9.13;96.91;99127.81;4874901;29;20065;-80
2022/09/22 01:50:29;;;;;;;0.50;0.50;;;;;;;9.11;96.62;99125.38;4875005;29;20057;-81
2022/09/22 01:53:00;;;;;;;0.50;0.50;;;;;;;9.09;96.70;99129.34;4881953;29;20055;-81
2022/09/22 01:55:33;;;;;;;0.60;0.60;;;;;;;9.10;96.69;99129.09;4917168;29;20048;-80
2022/09/22 01:58:14;;;;;;;0.57;0.57;;;;;;;9.09;96.76;99135.53;4917052;29;20056;-81
2022/09/22 02:00:46;;;;;;;0.60;0.60;;;;;;;9.08;96.91;99131.19;4917305;29;20060;-81
2022/09/22 02:03:23;;;;;;;0.57;0.57;;;;;;;9.07;97.02;99134.13;4901664;29;20075;-82
2022/09/22 02:05:56;;;;;;;0.50;0.50;;;;;;;9.07;96.92;99129.56;4902029;29;20060;-82
2022/09/22 02:08:31;;;;;;;0.60;0.60;;;;;;;9.09;97.25;99140.94;4917364;29;20485;-81
2022/09/22 02:11:03;;;;;;;0.60;0.60;;;;;;;9.10;97.37;99139.88;4917150;29;20154;-81
2022/09/22 02:13:30;;;;;;;0.50;0.50;;;;;;;9.11;97.24;99143.38;4917088;29;20087;-81
2022/09/22 02:15:59;;;;;;;0.60;0.60;;;;;;;9.13;97.32;99146.66;4917122;29;20107;-81
2022/09/22 02:18:32;;;;;;;0.50;0.50;;;;;;;9.17;97.44;99147.03;4931999;29;20111;-81
2022/09/22 02:21:00;;;;;;;0.50;0.50;;;;;;;9.14;97.30;99142.94;4917015;29;20048;-82
2022/09/22 02:23:28;;;;;;;0.50;0.50;;;;;;;9.12;97.12;99139.66;4917029;29;20131;-80
2022/09/22 02:26:00;;;;;;;0.60;0.60;;;;;;;9.10;97.04;99147.13;4917206;29;20135;-81
2022/09/22 02:28:30;;;;;;;0.57;0.57;;;;;;;9.08;96.91;99133.88;4917485;29;20056;-79
2022/09/22 02:31:00;;;;;;;0.50;0.50;;;;;;;9.07;96.92;99128.75;4917293;29;20440;-83
2022/09/22 02:33:46;;;;;;;0.60;0.60;;;;;;;9.02;97.00;99132.13;4917461;29;20056;-81
2022/09/22 02:36:42;;;;;;;0.60;0.60;;;;;;;9.02;97.22;99126.75;4932546;29;20048;-81
2022/09/22 02:39:21;;;;;;;0.50;0.50;;;;;;;9.02;97.28;99129.44;4918414;29;20580;-82
2022/09/22 02:42:26;;;;;;;0.50;0.50;;;;;;;9.06;97.24;99130.63;4917277;29;20135;-81
2022/09/22 02:45:07;;;;;;;0.50;0.50;;;;;;;9.04;97.22;99124.66;4933052;29;20067;-82
2022/09/22 02:48:02;;;;;;;0.60;0.60;;;;;;;9.05;97.13;99125.47;4916625;29;20120;-82
2022/09/22 02:50:29;;;;;;;0.50;0.50;;;;;;;9.00;97.23;99128.03;4917004;29;20419;-82
2022/09/22 02:53:01;;;;;;;0.50;0.50;;;;;;;9.03;97.46;99133.75;4916532;29;20152;-81
2022/09/22 02:55:28;;;;;;;0.60;0.60;;;;;;;9.02;97.26;99137.50;4916816;29;20052;-82
2022/09/22 02:57:55;;;;;;;0.50;0.50;;;;;;;9.06;97.57;99138.72;4917237;29;20044;-82
2022/09/22 03:00:22;;;;;;;0.50;0.50;;;;;;;9.07;97.53;99139.53;4916830;29;20166;-82
2022/09/22 03:02:50;;;;;;;0.50;0.50;;;;;;;9.05;97.51;99130.84;4914234;29;20507;-81
2022/09/22 03:05:17;;;;;;;0.50;0.50;;;;;;;9.06;97.93;99137.84;4917318;29;20456;-82
2022/09/22 03:07:45;;;;;;;0.50;0.50;;;;;;;9.05;97.65;99141.63;4917346;29;20076;-82
2022/09/22 03:10:12;;;;;;;0.50;0.50;;;;;;;9.06;97.59;99149.47;4917622;29;20063;-82
2022/09/22 03:12:41;;;;;;;0.52;0.52;;;;;;;9.05;97.58;99153.19;4917247;29;20052;-81
2022/09/22 03:15:28;;;;;;;0.50;0.50;;;;;;;9.04;97.69;99145.34;4920472;29;20143;-82
2022/09/22 03:17:55;;;;;;;0.60;0.60;;;;;;;9.01;97.74;99143.13;4922703;29;20052;-82
2022/09/22 03:20:22;;;;;;;0.50;0.50;;;;;;;9.05;97.73;99153.19;4922564;29;20052;-82
2022/09/22 03:22:51;;;;;;;0.57;0.57;;;;;;;9.08;97.67;99163.50;4919133;29;20067;-81
2022/09/22 03:25:18;;;;;;;0.60;0.60;;;;;;;9.09;97.65;99159.78;4915982;29;20066;-81
2022/09/22 03:27:45;;;;;;;0.50;0.50;;;;;;;9.09;97.64;99159.78;4917473;29;20111;-81
2022/09/22 03:30:12;;;;;;;0.50;0.50;;;;;;;9.08;97.40;99157.31;4916186;29;20558;-81
2022/09/22 03:32:39;;;;;;;0.60;0.60;;;;;;;9.06;97.33;99160.25;4917399;29;20162;-81
2022/09/22 03:35:07;;;;;;;0.52;0.52;;;;;;;9.05;97.33;99157.78;4917029;29;20123;-82
2022/09/22 03:37:34;;;;;;;0.60;0.60;;;;;;;9.04;97.17;99159.66;4917437;29;20071;-81
2022/09/22 03:40:02;;;;;;;0.50;0.50;;;;;;;8.99;97.00;99151.44;4917012;29;20047;-81
2022/09/22 03:42:29;;;;;;;0.50;0.50;;;;;;;8.98;97.07;99152.47;4947840;29;20148;-82
2022/09/22 03:44:56;;;;;;;0.50;0.50;;;;;;;9.00;96.99;99160.34;4916671;29;20166;-81
2022/09/22 03:47:23;;;;;;;0.50;0.50;;;;;;;9.00;97.03;99160.34;4916592;29;20377;-82
2022/09/22 03:49:50;;;;;;;0.50;0.50;;;;;;;8.98;97.29;99163.25;4916574;29;20048;-82
2022/09/22 03:52:17;;;;;;;0.50;0.50;;;;;;;9.01;97.28;99156.56;4916702;29;20192;-81
2022/09/22 03:54:44;;;;;;;0.60;0.60;;;;;;;9.03;97.18;99170.63;4903070;29;20084;-81
2022/09/22 03:57:11;;;;;;;0.60;0.60;;;;;;;9.03;97.31;99163.38;4897535;29;20511;-81
2022/09/22 03:59:38;;;;;;;0.50;0.50;;;;;;;9.04;97.39;99169.56;4897231;29;20056;-80
2022/09/22 04:02:05;;;;;;;0.50;0.50;;;;;;;9.05;97.35;99161.28;4897743;29;20057;-81
2022/09/22 04:04:32;;;;;;;0.60;0.60;;;;;;;9.05;97.33;99163.16;4904029;29;20048;-82
2022/09/22 04:06:59;;;;;;;0.50;0.50;;;;;;;9.03;97.27;99162.56;4888764;29;20215;-82
2022/09/22 04:09:32;;;;;;;0.50;0.50;;;;;;;9.03;97.26;99170.63;4904929;29;20048;-82
2022/09/22 04:11:59;;;;;;;0.60;0.60;;;;;;;9.04;97.54;99165.03;4905336;29;20381;-83
2022/09/22 04:14:27;;;;;;;0.60;0.60;;;;;;;9.06;97.37;99170.16;4899142;29;20064;-83
2022/09/22 04:16:53;;;;;;;0.60;0.60;;;;;;;9.04;97.39;99165.03;4896227;29;20054;-82
2022/09/22 04:19:21;;;;;;;0.50;0.50;;;;;;;9.07;97.34;99161.06;4907081;29;20460;-83
2022/09/22 04:21:48;;;;;;;0.60;0.60;;;;;;;9.05;97.43;99153.19;4915953;29;20044;-83
2022/09/22 04:24:23;;;;;;;0.60;0.60;;;;;;;9.07;97.48;99158.38;4901707;29;20151;-83
2022/09/22 04:26:50;;;;;;;0.60;0.60;;;;;;;9.10;97.42;99161.41;4897554;29;20052;-82
2022/09/22 04:29:37;;;;;;;0.50;0.50;;;;;;;9.13;97.00;99156.63;4905636;29;20059;-83
2022/09/22 04:32:04;;;;;;;0.50;0.50;;;;;;;9.13;97.23;99170.06;4908044;29;20181;-82
2022/09/22 04:34:32;;;;;;;0.50;0.50;;;;;;;9.17;97.42;99172.09;4914957;29;20315;-83
2022/09/22 04:36:59;;;;;;;0.60;0.60;;;;;;;9.20;97.10;99165.41;4915972;29;20067;-82
2022/09/22 04:39:27;;;;;;;0.60;0.60;;;;;;;9.20;97.07;99165.41;4916871;29;20054;-84
2022/09/22 04:41:54;;;;;;;0.60;0.60;;;;;;;9.24;96.98;99163.88;4917097;29;20170;-84
2022/09/22 04:44:21;;;;;;;0.50;0.50;;;;;;;9.28;96.69;99168.56;4915883;29;20056;-83
2022/09/22 04:46:49;;;;;;;0.60;0.60;;;;;;;9.37;96.44;99170.91;4907940;29;20518;-82
2022/09/22 04:49:17;;;;;;;0.50;0.50;;;;;;;9.38;96.03;99162.63;4902655;29;20053;-82
2022/09/22 04:51:44;;;;;;;0.50;0.50;;;;;;;9.44;95.78;99172.44;4904678;29;20052;-83
2022/09/22 04:54:12;;;;;;;0.60;0.60;;;;;;;9.47;95.43;99179.25;4898727;29;20155;-84
2022/09/22 04:56:41;;;;;;;0.52;0.52;;;;;;;9.51;95.17;99173.16;4897204;29;20049;-82
2022/09/22 04:59:10;;;;;;;0.60;0.60;;;;;;;9.56;95.10;99177.84;4904781;29;20064;-83
2022/09/22 05:01:38;;;;;;;0.60;0.60;;;;;;;9.60;94.83;99175.53;4910936;29;20074;-82
2022/09/22 05:04:05;;;;;;;0.50;0.50;;;;;;;9.65;94.82;99181.03;4896355;29;20139;-83
2022/09/22 05:06:32;;;;;;;0.57;0.57;;;;;;;9.71;94.50;99180.91;4903354;29;20049;-82
2022/09/22 05:08:59;;;;;;;0.60;0.60;;;;;;;9.70;94.10;99175.78;4904731;29;20056;-82
2022/09/22 05:11:26;;;;;;;0.57;0.57;;;;;;;9.71;93.73;99180.09;4900458;29;20053;-83
2022/09/22 05:13:54;;;;;;;0.50;0.50;;;;;;;9.73;93.20;99170.72;4558048;28;10000354;-83
2022/09/22 05:16:22;;;;;;;0.60;0.60;;;;;;;9.71;92.88;99177.41;4902363;29;20138;-83
2022/09/22 05:18:50;;;;;;;0.50;0.50;;;;;;;9.74;92.84;99172.34;4906829;29;20059;-83
2022/09/22 05:21:20;;;;;;;0.60;0.60;;;;;;;9.79;92.69;99166.25;4906772;29;20139;-83
2022/09/22 05:23:47;;;;;;;0.50;0.50;;;;;;;9.76;92.66;99158.66;4887167;29;20473;-83
2022/09/22 05:26:15;;;;;;;0.60;0.60;;;;;;;9.79;92.60;99149.28;4901225;29;20622;-83
2022/09/22 05:28:42;;;;;;;0.50;0.50;;;;;;;9.80;92.46;99156.28;4901104;29;20052;-82
2022/09/22 05:31:09;;;;;;;0.60;0.60;;;;;;;9.79;92.38;99152.78;4908030;29;20048;-82
2022/09/22 05:33:36;;;;;;;0.60;0.60;;;;;;;9.86;92.29;99161.56;4905507;29;20098;-83
2022/09/22 05:36:04;;;;;;;0.50;0.50;;;;;;;9.91;91.60;99160.88;4909998;29;20086;-82
2022/09/22 05:38:31;;;;;;;0.57;0.57;;;;;;;9.94;91.36;99155.81;4909694;29;20056;-81
2022/09/22 05:40:58;;;;;;;0.50;0.50;;;;;;;10.01;91.00;99163.78;4924623;29;20079;-83
2022/09/22 05:43:25;;;;;;;0.50;0.50;;;;;;;10.02;90.81;99164.59;4911420;29;20575;-84
2022/09/22 05:45:52;;;;;;;0.60;0.60;;;;;;;10.07;90.32;99156.63;4907559;29;20148;-85
2022/09/22 05:48:19;;;;;;;0.50;0.50;;;;;;;10.04;90.50;99162.47;4905648;29;20059;-83
2022/09/22 05:50:47;;;;;;;0.50;0.50;;;;;;;10.04;90.85;99163.31;4906242;29;20119;-81
2022/09/22 05:53:14;;;;;;;0.60;0.60;;;;;;;10.11;90.70;99155.09;4911734;29;20052;-83
2022/09/22 05:55:41;;;;;;;0.50;0.50;;;;;;;10.20;90.27;99157.19;4903170;29;20048;-83
2022/09/22 05:58:13;;;;;;;0.60;0.60;;;;;;;10.34;89.83;99156.94;4906210;29;20431;-84
2022/09/22 06:00:40;;;;;;;0.60;0.60;;;;;;;10.37;89.50;99146.47;4902714;29;20312;-82
2022/09/22 06:03:08;;;;;;;0.50;0.50;;;;;;;10.48;89.06;99154.78;4900571;29;20176;-82
2022/09/22 06:05:36;;;;;;;0.60;0.60;;;;;;;10.48;88.77;99149.38;4903107;29;20079;-85
2022/09/22 06:08:05;;;;;;;0.50;0.50;;;;;;;10.49;88.41;99153.72;4903233;29;20063;-83
2022/09/22 06:10:35;;;;;;;0.50;0.50;;;;;;;10.45;88.37;99157.94;4885204;29;20098;-81
2022/09/22 06:13:04;;;;;;;0.60;0.60;;;;;;;10.39;88.54;99149.75;4902392;29;20113;-82
2022/09/22 06:15:34;;;;;;;0.50;0.50;;;;;;;10.38;88.97;99152.69;4908109;29;20053;-83
2022/09/22 06:18:05;;;;;;;0.50;0.50;;;;;;;10.31;89.16;99150.16;4900791;29;20063;-81
2022/09/22 06:20:34;;;;;;;0.50;0.50;;;;;;;10.25;89.33;99147.53;4896211;29;20098;-82
2022/09/22 06:23:01;;;;;;;0.50;0.50;;;;;;;10.24;89.33;99157.53;4899167;29;20053;-82
2022/09/22 06:25:28;;;;;;;0.60;0.60;;;;;;;10.25;89.40;99156.44;4901567;29;20052;-83
2022/09/22 06:28:06;;;;;;;0.60;0.60;;;;;;;10.23;89.31;99163.97;4897721;29;20064;-83
2022/09/22 06:30:35;;;;;;;0.50;0.50;;;;;;;10.24;89.04;99162.09;4903239;29;20103;-81
2022/09/22 06:33:02;;;;;;;0.60;0.60;;;;;;;10.31;89.33;99169.03;4904034;29;20071;-83
2022/09/22 06:35:34;;;;;;;0.50;0.50;;;;;;;10.40;88.79;99167.56;4895893;29;20151;-80
2022/09/22 06:38:01;;;;;;;0.50;0.50;;;;;;;10.47;88.55;99166.63;4914365;29;20044;-83
2022/09/22 06:40:29;;;;;;;0.50;0.50;;;;;;;10.59;88.38;99162.84;4909036;29;20060;-80
2022/09/22 06:42:57;;;;;;;0.60;0.60;;;;;;;10.66;87.81;99160.00;4914041;29;20054;-81
2022/09/22 06:45:25;;;;;;;0.60;0.60;;;;;;;10.72;87.80;99175.22;4920214;29;20709;-82
2022/09/22 06:47:59;;;;;;;0.60;0.60;;;;;;;10.79;87.44;99170.50;4920516;29;20055;-82
2022/09/22 06:50:31;;;;;;;0.60;0.60;;;;;;;10.86;86.48;99164.94;4911763;29;20048;-81
2022/09/22 06:53:05;;;;;;;0.60;0.60;;;;;;;10.99;85.94;99167.34;4911514;29;20139;-80
2022/09/22 06:55:33;;;;;;;;;;;;;;;11.17;85.47;99162.78;4917095;29;20147;-80
2022/09/22 06:58:01;;;;;;;0.60;0.60;;;;;;;11.29;84.27;99163.50;4916206;29;20287;-81
2022/09/22 07:00:31;;;;;;;0.60;0.60;;;;;;;11.41;83.71;99164.25;4916123;29;20048;-81
2022/09/22 07:03:25;;;;;;;0.50;0.50;;;;;;;11.48;82.66;99164.91;4917421;29;20067;-80
2022/09/22 07:05:59;;;;;;;0.60;0.60;;;;;;;11.66;81.88;99176.53;4917912;29;20056;-81
2022/09/22 07:08:27;;;;;;;;;;;;;;;11.87;80.83;99162.25;4916465;29;20083;-80
2022/09/22 07:10:56;;;;;;;0.60;0.60;;;;;;;12.11;79.59;99162.88;4916254;29;19938;-81
2022/09/22 07:13:28;;;;;;;0.60;0.60;;;;;;;12.43;78.22;99164.91;4917411;29;20052;-80
2022/09/22 07:16:00;;;;;;;0.60;0.60;;;;;;;12.85;76.59;99160.75;4917374;29;20135;-80
2022/09/22 07:18:29;;;;;;;0.60;0.60;;;;;;;12.88;75.76;99168.34;4916877;29;20516;-81
2022/09/22 07:21:02;;;;;;;0.60;0.60;;;;;;;12.90;75.07;99164.31;4915673;29;20052;-80
2022/09/22 07:23:29;;;;;;;0.57;0.57;;;;;;;12.82;75.15;99159.38;4916486;29;20111;-81
2022/09/22 07:25:59;;;;;;;0.60;0.60;;;;;;;12.87;75.09;99164.03;4917430;29;20060;-81
2022/09/22 07:28:27;;;;;;;0.50;0.50;;;;;;;12.78;75.08;99163.66;4917132;29;20056;-81
2022/09/22 07:30:58;;;;;;;0.50;0.50;;;;;;;12.53;76.01;99164.19;4916393;29;20054;-81
2022/09/22 07:33:25;;;;;;;0.50;0.50;;;;;;;12.36;76.98;99166.97;4917437;29;20056;-82
2022/09/22 07:36:07;;;;;;;0.50;0.50;;;;;;;12.04;77.68;99173.06;4917263;29;20166;-80
2022/09/22 07:38:35;;;;;;;0.50;0.50;;;;;;;11.80;78.21;99179.69;4915564;29;20132;-80
2022/09/22 07:41:11;;;;;;;0.50;0.50;;;;;;;11.78;78.73;99174.56;4917160;29;20056;-79
2022/09/22 07:43:38;;;;;;;0.50;0.50;;;;;;;11.86;78.54;99176.03;4915599;29;20062;-81
2022/09/22 07:46:08;;;;;;;0.60;0.60;;;;;;;12.08;77.76;99178.81;4917085;29;20048;-80
2022/09/22 07:48:45;;;;;;;0.60;0.60;;;;;;;12.31;76.79;99180.44;4915989;29;20063;-81
2022/09/22 07:51:20;;;;;;;0.60;0.60;;;;;;;12.50;75.65;99180.94;4916633;29;20111;-80
2022/09/22 07:54:06;;;;;;;0.50;0.50;;;;;;;12.52;74.81;99182.31;4916453;29;20071;-81
2022/09/22 07:56:43;;;;;;;0.50;0.50;;;;;;;12.60;74.85;99180.25;4916472;29;20479;-80
2022/09/22 07:59:15;;;;;;;0.50;0.50;;;;;;;12.47;74.82;99182.25;4916768;29;20549;-80
2022/09/22 08:01:49;;;;;;;0.50;0.50;;;;;;;12.20;75.54;99182.19;4914914;29;20052;-81
2022/09/22 08:04:21;;;;;;;0.50;0.50;;;;;;;12.18;76.05;99186.22;4916541;29;20060;-80
2022/09/22 08:06:54;;;;;;;0.50;0.50;;;;;;;12.15;75.78;99190.22;4916200;29;20523;-80
2022/09/22 08:09:22;;;;;;;0.50;0.50;;;;;;;12.00;75.89;99201.69;4916816;29;20060;-81
2022/09/22 08:11:51;;;;;;;0.50;0.50;;;;;;;11.88;76.44;99198.25;4916052;29;20143;-81
2022/09/22 08:14:22;;;;;;;0.50;0.50;;;;;;;11.78;77.19;99206.19;4916314;29;20048;-79
2022/09/22 08:16:52;;;;;;;0.50;0.50;;;;;;;11.67;77.64;99200.63;4915016;29;20058;-81
2022/09/22 08:19:21;;;;;;;0.50;0.50;;;;;;;11.46;77.94;99195.94;4919481;29;20056;-80
2022/09/22 08:21:50;;;;;;;0.50;0.50;;;;;;;11.51;78.53;99201.44;4920031;29;20079;-80
2022/09/22 08:24:21;;;;;;;0.50;0.50;;;;;;;11.52;78.46;99202.25;4920496;29;20059;-81
2022/09/22 08:26:54;;;;;;;0.60;0.60;;;;;;;11.52;77.65;99197.69;4916093;29;20148;-81
2022/09/22 08:29:23;;;;;;;0.50;0.50;;;;;;;11.56;77.42;99203.41;4916001;29;20535;-81
2022/09/22 08:31:50;;;;;;;0.50;0.50;;;;;;;11.63;76.73;99191.38;4915596;29;20423;-82
2022/09/22 08:34:17;;;;;;;0.50;0.50;;;;;;;11.61;76.26;99203.50;4916491;29;20080;-81
2022/09/22 08:36:47;;;;;;;0.40;0.40;;;;;;;11.62;76.69;99207.81;4915976;29;20652;-81
2022/09/22 08:39:16;;;;;;;0.50;0.50;;;;;;;11.68;76.76;99207.66;4916230;29;20048;-81
2022/09/22 08:41:54;;;;;;;0.50;0.50;;;;;;;11.60;76.82;99210.78;4915497;29;20055;-80
2022/09/22 08:44:59;;;;;;;0.50;0.50;;;;;;;11.56;77.25;99206.94;4914790;29;20075;-80
2022/09/22 08:53:27;;;;;;;0.50;0.50;;;;;;;11.76;77.28;99208.31;4914244;29;20476;-81
2022/09/22 08:56:17;;;;;;;0.50;0.50;;;;;;;11.79;77.22;99208.63;4915449;29;20048;-81
2022/09/22 08:59:07;;;;;;;0.50;0.50;;;;;;;11.83;77.16;99212.50;4913623;29;20531;-81
2022/09/22 09:01:51;;;;;;;0.50;0.50;;;;;;;11.81;77.27;99208.41;4914528;29;20441;-81
2022/09/22 09:04:36;;;;;;;0.50;0.50;;;;;;;11.83;77.63;99214.38;4913863;29;20076;-81
2022/09/22 09:07:22;;;;;;;0.50;0.50;;;;;;;11.98;77.35;99205.72;4915468;29;20526;-81
2022/09/22 09:10:20;;;;;;;0.57;0.57;;;;;;;12.04;77.57;99208.22;4915596;29;20111;-81
2022/09/22 09:13:08;;;;;;;0.52;0.52;;;;;;;12.02;77.50;99210.34;4906295;29;20108;-81
2022/09/22 09:16:06;;;;;;;0.50;0.50;;;;;;;11.97;77.58;99199.47;4908389;29;20086;-81
2022/09/22 09:18:38;;;;;;;0.60;0.60;;;;;;;11.97;78.06;99204.88;4904737;29;20060;-79
2022/09/22 09:21:09;;;;;;;0.60;0.60;;;;;;;12.15;77.38;99206.47;4880131;29;20155;-81
2022/09/22 09:23:48;;;;;;;0.60;0.60;;;;;;;12.42;76.39;99209.25;4902783;29;20052;-80
2022/09/22 09:26:35;;;;;;;0.60;0.60;;;;;;;12.78;75.14;99209.69;4898264;29;20067;-82
2022/09/22 09:29:06;;;;;;;0.60;0.60;;;;;;;13.18;73.88;99203.06;4910858;29;20154;-81
2022/09/22 09:31:37;;;;;;;0.50;0.50;;;;;;;13.25;73.16;99198.25;4894376;29;20052;-80
2022/09/22 09:34:06;;;;;;;0.50;0.50;;;;;;;13.09;72.46;99197.28;4904293;29;20399;-80
2022/09/22 09:36:40;;;;;;;0.50;0.50;;;;;;;12.79;72.85;99201.31;4897682;29;20058;-81
2022/09/22 09:39:17;;;;;;;0.50;0.50;;;;;;;12.59;73.39;99203.78;4914628;29;20103;-82
2022/09/22 09:41:48;;;;;;;0.50;0.50;;;;;;;12.40;73.61;99199.75;4911646;29;20062;-82
2022/09/22 09:44:20;;;;;;;0.50;0.50;;;;;;;12.22;74.58;99200.88;4565049;28;9999748;-81
2022/09/22 09:47:06;;;;;;;0.50;0.50;;;;;;;12.25;74.27;99205.78;4907507;29;20139;-84
2022/09/22 09:49:34;;;;;;;0.60;0.60;;;;;;;12.34;74.19;99207.00;4907355;29;20085;-81
2022/09/22 09:52:03;;;;;;;0.50;0.50;;;;;;;12.45;73.95;99219.59;4903138;29;20104;-81
2022/09/22 09:54:30;;;;;;;0.50;0.50;;;;;;;12.50;74.11;99208.00;4900538;29;20428;-81
2022/09/22 09:57:15;;;;;;;0.50;0.50;;;;;;;12.63;73.44;99207.63;4892727;29;20060;-81
2022/09/22 10:00:32;;;;;;;0.50;0.50;;;;;;;12.63;73.28;99207.63;4892486;29;20520;-81
2022/09/22 10:03:20;;;;;;;0.50;0.50;;;;;;;12.57;72.79;99216.75;4901045;29;20507;-82
2022/09/22 10:05:59;;;;;;;0.60;0.60;;;;;;;13.00;71.50;99207.75;4899041;29;20052;-82
2022/09/22 10:08:30;;;;;;;0.50;0.50;;;;;;;13.43;69.63;99205.22;4895480;29;20056;-80
2022/09/22 10:11:01;;;;;;;0.70;0.70;;;;;;;13.94;68.01;99200.16;4905308;29;20080;-81
2022/09/22 10:13:36;;;;;;;0.60;0.60;;;;;;;15.67;63.31;99192.78;4916998;29;20500;-80
2022/09/22 10:16:03;;;;;;;0.80;0.80;;;;;;;16.07;61.26;99185.69;4908574;29;20049;-82
2022/09/22 10:18:34;;;;;;;0.50;0.50;;;;;;;15.99;60.06;99187.88;4909614;29;20059;-79
2022/09/22 10:21:18;;;;;;;0.50;0.50;;;;;;;14.66;63.22;99189.66;4901650;29;20050;-80
2022/09/22 10:23:50;;;;;;;0.50;0.50;;;;;;;13.76;66.07;99190.53;4909596;29;20056;-82
2022/09/22 10:26:18;;;;;;;0.50;0.50;;;;;;;13.81;66.94;99189.78;4911790;29;20058;-82
2022/09/22 10:29:05;;;;;;;0.60;0.60;;;;;;;14.65;64.63;99186.13;4915863;29;20075;-81
2022/09/22 10:31:36;;;;;;;0.70;0.70;;;;;;;15.86;61.23;99177.56;4918670;29;20075;-80
2022/09/22 10:34:05;;;;;;;0.60;0.60;;;;;;;15.91;59.97;99177.56;4920548;29;20059;-80
2022/09/22 10:36:42;;;;;;;0.50;0.50;;;;;;;15.04;62.01;99172.13;4903930;29;20051;-80
2022/09/22 10:39:16;;;;;;;0.40;0.40;;;;;;;14.20;64.25;99179.41;4907397;29;20056;-80
2022/09/22 10:41:45;;;;;;;0.50;0.50;;;;;;;13.69;66.23;99176.38;4914511;29;20052;-80
2022/09/22 10:44:18;;;;;;;0.40;0.40;;;;;;;13.16;67.86;99181.63;4905966;29;20091;-80
2022/09/22 10:47:24;;;;;;;0.40;0.40;;;;;;;12.76;69.04;99190.16;4900192;29;20064;-80
2022/09/22 10:50:27;;;;;;;0.40;0.40;;;;;;;12.64;69.67;99184.09;4910664;29;20143;-80
2022/09/22 10:53:04;;;;;;;0.50;0.50;;;;;;;12.63;69.70;99185.16;4909611;29;20430;-79
2022/09/22 10:55:39;;;;;;;0.50;0.50;;;;;;;12.76;69.61;99184.75;4908471;29;20048;-80
2022/09/22 10:58:06;;;;;;;0.60;0.60;;;;;;;13.31;68.52;99178.25;4909548;29;20415;-81
2022/09/22 11:00:35;;;;;;;0.50;0.50;;;;;;;13.52;67.76;99187.41;4912029;29;20048;-79
2022/09/22 11:03:34;;;;;;;0.50;0.50;;;;;;;13.58;67.15;99183.63;4911074;29;20209;-80
2022/09/22 11:12:28;;;;;;;0.50;0.50;;;;;;;12.64;69.59;99176.78;4908261;29;20135;-80
2022/09/22 11:15:14;;;;;;;0.50;0.50;;;;;;;12.55;70.39;99181.00;4908591;29;20056;-80
2022/09/22 11:18:09;;;;;;;0.50;0.50;;;;;;;12.52;70.69;99174.19;4912411;29;20052;-80
2022/09/22 11:21:16;;;;;;;0.50;0.50;;;;;;;12.49;70.58;99174.72;4916214;29;20060;-80
2022/09/22 11:24:02;;;;;;;0.50;0.50;;;;;;;12.51;70.65;99171.75;4858299;29;20057;-80
2022/09/22 11:26:37;;;;;;;0.50;0.50;;;;;;;12.63;70.60;99169.72;4857178;29;20148;-79
2022/09/22 11:29:40;;;;;;;0.60;0.60;;;;;;;12.86;70.41;99168.59;4857392;29;20053;-80
2022/09/22 11:32:22;;;;;;;0.50;0.50;;;;;;;13.27;68.98;99168.19;4855611;29;20517;-81
2022/09/22 11:34:49;;;;;;;0.50;0.50;;;;;;;13.56;67.58;99164.09;4858109;29;20085;-81
2022/09/22 11:37:41;;;;;;;0.80;0.80;;;;;;;14.34;65.92;99155.31;4853545;29;20077;-80
2022/09/22 11:40:20;;;;;;;0.60;0.60;;;;;;;15.02;63.37;99159.88;4857616;29;20052;-79
2022/09/22 11:43:11;;;;;;;0.55;0.55;;;;;;;14.88;62.87;99162.28;4856688;29;20521;-80
2022/09/22 11:45:41;;;;;;;0.50;0.50;;;;;;;14.35;64.06;99156.94;4856593;29;20060;-80
2022/09/22 11:48:32;;;;;;;0.50;0.50;;;;;;;14.03;65.35;99144.31;4856897;29;20093;-80
2022/09/22 11:51:14;;;;;;;0.50;0.50;;;;;;;13.90;66.17;99141.25;4856804;29;20510;-81
2022/09/22 11:54:02;;;;;;;0.50;0.50;;;;;;;13.75;66.38;99137.41;4839149;29;20480;-80
2022/09/22 11:56:34;;;;;;;0.50;0.50;;;;;;;13.86;66.35;99149.13;4857491;29;20117;-81
2022/09/22 11:59:51;;;;;;;0.50;0.50;;;;;;;13.74;66.81;99134.94;4895197;29;20055;-81
2022/09/22 12:02:34;;;;;;;0.50;0.50;;;;;;;13.70;67.17;99131.09;4835944;29;20058;-81
2022/09/22 12:05:12;;;;;;;1.10;1.10;;;;;;;14.69;64.93;99132.91;4835096;29;20160;-81
2022/09/22 12:08:04;;;;;;;0.60;0.60;;;;;;;15.70;61.79;99121.53;4821613;29;20605;-80
2022/09/22 12:10:36;;;;;;;0.70;0.70;;;;;;;15.52;61.52;99110.13;4805762;29;20066;-82
2022/09/22 12:13:21;;;;;;;0.70;0.70;;;;;;;16.38;59.16;99110.13;4829041;29;20226;-79
2022/09/22 12:16:00;;;;;;;0.70;0.70;;;;;;;17.28;56.17;99118.00;4818162;29;20054;-81
2022/09/22 12:18:36;;;;;;;0.50;0.50;;;;;;;16.33;58.11;99108.28;4827954;29;20149;-81
2022/09/22 12:21:08;;;;;;;0.70;0.70;;;;;;;16.12;58.99;99123.88;4828099;29;20054;-80
2022/09/22 12:23:54;;;;;;;0.80;0.80;;;;;;;17.16;56.79;99123.00;4832853;29;20066;-79